TimeCST,TemperatureF,Dew PointF,Humidity,Sea Level PressureIn,VisibilityMPH,Wind Direction,Wind SpeedMPH,Gust SpeedMPH,PrecipitationIn,Events,Conditions,WindDirDegrees,DateUTC
12:53 AM,24.1,19.9,84,29.83,10.0,SW,4.6,-,N/A,,Overcast,230,2012-11-25 06:53:00
1:51 AM,24.8,19.4,80,29.78,10.0,WSW,4.6,-,N/A,,Overcast,250,2012-11-25 07:51:00
1:53 AM,24.1,19.9,84,29.83,10.0,WSW,4.6,-,N/A,,Overcast,250,2012-11-25 07:53:00
2:53 AM,25.0,19.9,81,29.83,10.0,WSW,5.8,-,N/A,,Overcast,240,2012-11-25 08:53:00
3:53 AM,25.0,19.9,81,29.83,10.0,West,8.1,-,N/A,,Overcast,260,2012-11-25 09:53:00
4:53 AM,25.0,19.9,81,29.84,10.0,West,8.1,-,N/A,,Overcast,280,2012-11-25 10:53:00
5:53 AM,25.0,19.9,81,29.85,10.0,West,9.2,-,N/A,,Overcast,260,2012-11-25 11:53:00
6:53 AM,25.0,21.0,85,29.86,10.0,West,8.1,-,N/A,,Overcast,260,2012-11-25 12:53:00
7:22 AM,24.8,21.2,86,29.82,10.0,WSW,6.9,-,N/A,,Overcast,250,2012-11-25 13:22:00
7:53 AM,23.0,19.0,85,29.87,10.0,West,9.2,-,N/A,,Scattered Clouds,260,2012-11-25 13:53:00
8:19 AM,24.8,19.4,80,29.84,10.0,West,8.1,-,N/A,,Mostly Cloudy,260,2012-11-25 14:19:00
8:53 AM,25.0,19.9,81,29.88,10.0,West,10.4,-,N/A,,Overcast,270,2012-11-25 14:53:00
9:53 AM,26.1,21.0,81,29.89,10.0,West,8.1,-,N/A,,Overcast,260,2012-11-25 15:53:00
10:53 AM,26.1,21.0,81,29.92,10.0,West,11.5,18.4,N/A,,Overcast,260,2012-11-25 16:53:00
11:53 AM,26.1,19.0,75,29.92,10.0,West,15.0,-,N/A,,Overcast,270,2012-11-25 17:53:00
12:53 PM,26.1,18.0,71,29.93,10.0,West,12.7,-,0.00,Snow,Light Snow,270,2012-11-25 18:53:00
1:16 PM,26.6,17.6,69,29.89,8.0,West,12.7,-,0.00,Snow,Light Snow,280,2012-11-25 19:16:00
1:53 PM,26.1,18.0,71,29.94,10.0,West,10.4,-,0.00,,Overcast,280,2012-11-25 19:53:00
2:44 PM,24.8,17.6,74,29.91,2.5,West,10.4,-,0.00,Snow,Light Snow,270,2012-11-25 20:44:00
2:53 PM,25.0,19.0,78,29.96,1.5,WNW,8.1,-,0.00,Snow,Light Snow,290,2012-11-25 20:53:00
3:04 PM,24.8,19.4,80,29.92,3.0,West,10.4,-,0.00,Snow,Light Snow,280,2012-11-25 21:04:00
3:13 PM,24.8,17.6,74,29.92,1.8,West,8.1,-,0.00,Snow,Light Snow,280,2012-11-25 21:13:00
3:24 PM,24.8,19.4,80,29.93,3.0,WNW,6.9,-,0.00,Snow,Light Snow,290,2012-11-25 21:24:00
3:46 PM,24.8,19.4,80,29.93,8.0,West,5.8,-,0.00,,Overcast,260,2012-11-25 21:46:00
3:53 PM,24.1,19.0,81,29.98,9.0,West,4.6,-,0.00,,Overcast,260,2012-11-25 21:53:00
4:10 PM,24.8,19.4,80,29.94,2.5,West,4.6,-,0.00,Snow,Light Snow,270,2012-11-25 22:10:00
4:24 PM,23.0,19.4,86,29.94,3.0,West,4.6,-,0.00,Snow,Light Snow,260,2012-11-25 22:24:00
4:53 PM,21.9,19.0,89,29.99,10.0,WSW,4.6,-,0.00,,Overcast,240,2012-11-25 22:53:00
5:53 PM,24.1,18.0,77,30.01,8.0,West,5.8,-,0.00,Snow,Light Snow,280,2012-11-25 23:53:00
6:53 PM,24.1,19.9,84,30.02,4.0,WSW,3.5,-,0.00,Snow,Light Snow,240,2012-11-26 00:53:00
7:02 PM,23.0,19.4,86,29.98,2.0,WSW,4.6,-,0.00,Snow,Light Snow,240,2012-11-26 01:02:00
7:06 PM,23.0,19.4,86,29.98,3.0,SW,4.6,-,0.00,Snow,Light Snow,230,2012-11-26 01:06:00
7:53 PM,23.0,21.0,92,30.04,10.0,SW,4.6,-,0.00,,Overcast,230,2012-11-26 01:53:00
8:53 PM,23.0,19.9,88,30.04,6.0,West,5.8,-,0.00,Snow,Light Snow,270,2012-11-26 02:53:00
9:02 PM,24.8,19.4,80,30.00,2.5,West,5.8,-,0.00,Snow,Light Snow,280,2012-11-26 03:02:00
9:13 PM,24.8,19.4,80,30.02,4.0,NW,8.1,-,0.00,Snow,Light Snow,310,2012-11-26 03:13:00
9:53 PM,23.0,18.0,81,30.08,6.0,NW,6.9,-,0.00,Snow,Light Snow,320,2012-11-26 03:53:00
10:46 PM,19.4,12.2,74,30.07,10.0,NW,12.7,19.6,0.00,,Overcast,320,2012-11-26 04:46:00
10:53 PM,19.9,12.0,71,30.12,10.0,NW,15.0,19.6,0.00,,Overcast,310,2012-11-26 04:53:00
11:53 PM,18.0,10.9,74,30.16,10.0,WNW,6.9,-,N/A,,Overcast,290,2012-11-26 05:53:00